Time;durP1;ratioP1;P1;durP2;ratioP2;P2;SDS_P1;SDS_P2;PMS_P1;PMS_P2;Temp;Humidity;BMP_temperature;BMP_pressure;BME280_temperature;BME280_humidity;BME280_pressure;Samples;Min_cycle;Max_cycle;Signal;HPM_P1;HPM_P2
2022/04/19 00:00:18;;;;;;;23.70;13.55;;;;;;;8.33;65.11;101327.31;5062023;28;20029;-64
2022/04/19 00:02:43;;;;;;;23.17;13.18;;;;;;;8.42;65.87;101324.00;5063271;28;20032;-64
2022/04/19 00:05:09;;;;;;;25.15;13.73;;;;;;;8.38;65.92;101323.94;5062821;28;20107;-65
2022/04/19 00:07:35;;;;;;;24.77;13.88;;;;;;;8.36;66.13;101315.13;5064494;28;20029;-64
2022/04/19 00:10:01;;;;;;;23.63;13.70;;;;;;;8.28;67.65;101316.69;5061320;28;20567;-65
2022/04/19 00:12:26;;;;;;;21.15;10.85;;;;;;;8.30;69.35;101315.00;5064731;28;20115;-64
2022/04/19 00:14:52;;;;;;;23.13;12.20;;;;;;;8.16;69.99;101312.06;5060705;28;20029;-64
2022/04/19 00:17:18;;;;;;;24.65;12.65;;;;;;;8.11;70.18;101313.72;5063433;28;20033;-65
2022/04/19 00:19:44;;;;;;;23.08;12.60;;;;;;;8.05;71.33;101312.69;5063356;28;20082;-64
2022/04/19 00:22:09;;;;;;;23.65;12.98;;;;;;;8.00;71.89;101313.47;5061984;28;20033;-65
2022/04/19 00:24:34;;;;;;;23.50;12.50;;;;;;;7.96;72.48;101318.63;5064548;28;20027;-64
2022/04/19 00:27:00;;;;;;;22.73;11.85;;;;;;;7.90;73.04;101307.97;5061131;28;20081;-64
2022/04/19 00:29:25;;;;;;;23.17;12.63;;;;;;;7.94;73.81;101313.34;5064073;28;20475;-65
2022/04/19 00:31:51;;;;;;;25.10;12.68;;;;;;;7.84;74.25;101308.72;5062169;28;20040;-65
2022/04/19 00:34:16;;;;;;;22.52;12.15;;;;;;;7.84;74.25;101306.09;5063118;28;20017;-64
2022/04/19 00:36:41;;;;;;;23.70;12.50;;;;;;;7.77;74.24;101298.91;5063149;28;20031;-64
2022/04/19 00:39:07;;;;;;;23.50;12.23;;;;;;;7.84;74.39;101303.47;5061846;28;20105;-65
2022/04/19 00:41:32;;;;;;;22.85;13.20;;;;;;;7.71;75.38;101306.66;5064571;28;20025;-65
2022/04/19 00:43:57;;;;;;;23.83;13.80;;;;;;;7.70;74.65;101305.75;5060872;28;20032;-64
2022/04/19 00:46:23;;;;;;;25.48;15.10;;;;;;;7.56;75.16;101304.53;5063614;28;20033;-65
2022/04/19 00:48:48;;;;;;;25.15;15.98;;;;;;;7.50;76.52;101307.94;5062021;28;20052;-65
2022/04/19 00:51:14;;;;;;;27.63;18.25;;;;;;;7.41;76.93;101312.94;5062476;28;20025;-65
2022/04/19 00:53:40;;;;;;;26.55;17.15;;;;;;;7.22;78.55;101309.84;5063491;28;20463;-65
2022/04/19 00:56:05;;;;;;;27.25;17.38;;;;;;;7.23;78.50;101306.38;5060765;28;20029;-65
2022/04/19 00:58:31;;;;;;;27.23;17.08;;;;;;;7.32;78.41;101305.72;5064221;28;20505;-65
2022/04/19 01:00:57;;;;;;;26.23;16.48;;;;;;;7.07;79.96;101312.97;5060778;28;20028;-65
2022/04/19 01:03:24;;;;;;;27.17;16.15;;;;;;;7.02;79.44;101308.44;5063469;28;20060;-65
2022/04/19 01:05:53;;;;;;;26.00;16.63;;;;;;;6.96;80.13;101310.09;5061973;28;20031;-65
2022/04/19 01:08:19;;;;;;;26.00;16.70;;;;;;;7.03;80.72;101307.59;5063145;28;20029;-65
2022/04/19 01:10:45;;;;;;;25.15;16.20;;;;;;;6.80;82.56;101299.97;5062399;28;20032;-65
2022/04/19 01:13:19;;;;;;;26.15;15.80;;;;;;;6.79;82.49;101303.50;5061885;28;20086;-65
2022/04/19 01:15:48;;;;;;;25.05;16.13;;;;;;;6.74;83.08;101308.63;5062469;28;20070;-65
2022/04/19 01:18:17;;;;;;;25.25;15.90;;;;;;;6.89;82.46;101300.25;5062268;28;20027;-64
2022/04/19 01:20:43;;;;;;;25.08;16.15;;;;;;;6.71;82.74;101294.50;5062823;28;20149;-65
2022/04/19 01:23:08;;;;;;;26.35;17.17;;;;;;;6.61;83.19;101289.00;5061362;28;20063;-64
2022/04/19 01:25:34;;;;;;;26.98;17.27;;;;;;;6.60;83.03;101289.84;5063982;28;20021;-65
2022/04/19 01:27:59;;;;;;;25.83;17.38;;;;;;;6.56;83.05;101292.34;5060522;28;20028;-65
2022/04/19 01:30:25;;;;;;;26.20;17.02;;;;;;;6.68;82.91;101283.91;5063536;28;20020;-65
2022/04/19 01:32:51;;;;;;;25.92;17.20;;;;;;;6.63;83.64;101286.41;5061682;28;20020;-65
2022/04/19 01:35:19;;;;;;;26.52;17.63;;;;;;;6.71;83.04;101287.47;5062199;28;20017;-65
2022/04/19 01:37:47;;;;;;;26.73;17.33;;;;;;;6.51;82.99;101286.97;5062479;28;20073;-64
2022/04/19 01:40:16;;;;;;;26.70;17.65;;;;;;;6.49;83.52;101283.38;5061817;28;20078;-65
2022/04/19 01:42:46;;;;;;;27.63;18.10;;;;;;;6.45;84.30;101294.66;5062691;28;20028;-64
2022/04/19 01:45:20;;;;;;;28.33;18.90;;;;;;;6.34;85.29;101286.47;5061518;28;20025;-65
2022/04/19 01:47:46;;;;;;;28.88;18.95;;;;;;;6.36;85.54;101284.78;5062174;28;20408;-64
2022/04/19 01:50:16;;;;;;;28.17;18.27;;;;;;;6.35;85.77;101285.63;5061452;28;20025;-64
2022/04/19 01:52:42;;;;;;;27.15;17.75;;;;;;;6.29;86.21;101290.69;5062570;28;20103;-64
2022/04/19 01:55:12;;;;;;;28.00;18.50;;;;;;;6.31;86.40;101288.13;5061016;28;20025;-64
2022/04/19 01:57:37;;;;;;;28.23;18.58;;;;;;;6.26;86.93;101281.00;5061700;28;20158;-64
2022/04/19 02:00:05;;;;;;;28.17;19.15;;;;;;;6.24;87.82;101282.69;5060408;28;20099;-64
2022/04/19 02:02:30;;;;;;;27.15;18.75;;;;;;;6.25;88.26;101280.97;5060273;28;20437;-64
2022/04/19 02:04:56;;;;;;;27.88;19.13;;;;;;;6.20;88.31;101279.94;5063243;28;20046;-64
2022/04/19 02:07:21;;;;;;;28.00;19.40;;;;;;;6.21;88.95;101279.97;5062376;28;20023;-64
2022/04/19 02:09:47;;;;;;;27.35;19.33;;;;;;;6.15;89.57;101279.81;5065649;28;20025;-64
2022/04/19 02:12:12;;;;;;;27.35;18.92;;;;;;;6.20;89.59;101280.81;5065724;28;20042;-64
2022/04/19 02:14:41;;;;;;;28.75;19.98;;;;;;;6.13;89.80;101284.13;5064089;28;20036;-64
2022/04/19 02:17:07;;;;;;;29.02;19.92;;;;;;;6.12;91.16;101277.09;5066659;28;20382;-64
2022/04/19 02:19:33;;;;;;;27.77;20.10;;;;;;;6.09;91.73;101277.88;5063432;28;20024;-64
2022/04/19 02:21:58;;;;;;;29.40;20.63;;;;;;;6.04;91.98;101281.22;5066814;28;20060;-65
2022/04/19 02:24:23;;;;;;;29.25;20.58;;;;;;;5.92;92.50;101276.47;5064501;28;20025;-64
2022/04/19 02:26:49;;;;;;;30.45;21.67;;;;;;;5.97;92.37;101273.97;5065388;28;20128;-64
2022/04/19 02:29:16;;;;;;;29.08;21.73;;;;;;;5.88;92.71;101275.50;5065322;28;20047;-64
2022/04/19 02:31:41;;;;;;;30.17;21.63;;;;;;;5.89;93.85;101273.75;5063588;28;20078;-65
2022/04/19 02:34:07;;;;;;;30.15;21.63;;;;;;;5.88;94.54;101275.50;5066349;28;20107;-64
2022/04/19 02:36:32;;;;;;;28.58;20.88;;;;;;;5.77;95.16;101269.00;5063597;28;20521;-65
2022/04/19 02:38:59;;;;;;;29.77;21.15;;;;;;;5.74;95.85;101268.94;5066386;28;20035;-65
2022/04/19 02:41:25;;;;;;;30.13;21.48;;;;;;;5.71;96.75;101276.72;5063563;28;20036;-64
2022/04/19 02:43:50;;;;;;;28.58;21.45;;;;;;;5.64;96.92;101269.47;5065354;28;20024;-64
2022/04/19 02:46:16;;;;;;;28.77;20.92;;;;;;;5.63;97.85;101268.56;5064653;28;20037;-65
2022/04/19 02:48:42;;;;;;;28.25;20.42;;;;;;;5.58;98.65;101263.19;5063770;28;20049;-65
2022/04/19 02:51:07;;;;;;;30.08;21.88;;;;;;;5.61;99.34;101267.66;5066039;28;20486;-65
2022/04/19 02:53:32;;;;;;;29.35;20.77;;;;;;;5.62;99.45;101268.53;5062762;28;20021;-66
2022/04/19 02:55:59;;;;;;;29.98;21.45;;;;;;;5.55;99.82;101268.34;5066073;28;20077;-66
2022/04/19 02:58:25;;;;;;;29.38;20.55;;;;;;;5.51;100.00;101263.84;5063499;28;20033;-67
2022/04/19 03:00:51;;;;;;;30.52;20.95;;;;;;;5.49;100.00;101260.28;5065071;28;20027;-65
2022/04/19 03:03:16;;;;;;;28.52;20.58;;;;;;;5.47;100.00;101254.09;5064409;28;20028;-66
2022/04/19 03:05:41;;;;;;;29.13;19.75;;;;;;;5.48;100.00;101255.88;5063870;28;20028;-65
2022/04/19 03:08:08;;;;;;;30.25;20.83;;;;;;;5.40;100.00;101265.22;5065574;28;20035;-66
2022/04/19 03:10:33;;;;;;;28.00;19.83;;;;;;;5.34;100.00;101255.41;5062478;28;20484;-65
2022/04/19 03:12:59;;;;;;;28.00;19.80;;;;;;;5.33;100.00;101258.00;5066092;28;20067;-66
2022/04/19 03:15:24;;;;;;;28.35;19.05;;;;;;;5.41;100.00;101261.75;5063035;28;20025;-66
2022/04/19 03:17:49;;;;;;;30.17;20.05;;;;;;;5.29;100.00;101261.38;5064634;28;20451;-66
2022/04/19 03:20:15;;;;;;;28.23;18.80;;;;;;;5.29;100.00;101262.25;5064423;28;20128;-66
2022/04/19 03:28:12;;;;;;;27.52;19.33;;;;;;;5.20;100.00;101259.34;5063037;28;20103;-67
2022/04/19 03:30:38;;;;;;;30.60;19.45;;;;;;;5.14;100.00;101262.66;5065257;28;20016;-67
2022/04/19 03:33:04;;;;;;;29.17;19.23;;;;;;;5.03;100.00;101261.41;5062104;28;20024;-67
2022/04/19 03:35:29;;;;;;;30.02;19.73;;;;;;;5.05;100.00;101267.56;5065537;28;20035;-64
2022/04/19 03:37:54;;;;;;;29.38;19.40;;;;;;;5.04;100.00;101269.31;5062877;28;20025;-64
2022/04/19 03:40:20;;;;;;;31.67;19.27;;;;;;;4.94;100.00;101266.34;5063980;28;20087;-64
2022/04/19 03:42:45;;;;;;;28.85;19.13;;;;;;;4.96;100.00;101267.28;5063690;28;20021;-64
2022/04/19 03:45:11;;;;;;;29.50;19.85;;;;;;;4.93;100.00;101262.81;5062884;28;20017;-64
2022/04/19 03:47:37;;;;;;;29.42;18.60;;;;;;;4.93;100.00;101262.81;5064774;28;20093;-64
2022/04/19 03:50:03;;;;;;;28.88;19.02;;;;;;;4.92;100.00;101266.25;5061731;28;20025;-64
2022/04/19 03:52:29;;;;;;;30.73;20.02;;;;;;;4.86;100.00;101255.56;5063849;28;20372;-64
2022/04/19 03:54:54;;;;;;;32.72;20.27;;;;;;;4.77;100.00;101256.16;5062268;28;20036;-64
2022/04/19 03:57:19;;;;;;;28.55;20.10;;;;;;;4.70;100.00;101259.41;5063447;28;20463;-64
2022/04/19 03:59:45;;;;;;;30.90;20.10;;;;;;;4.73;100.00;101256.88;5063635;28;20025;-64
2022/04/19 04:02:10;;;;;;;28.65;20.27;;;;;;;4.60;100.00;101257.28;5062547;28;20104;-64
2022/04/19 04:04:36;;;;;;;29.42;20.05;;;;;;;4.60;100.00;101262.53;5064666;28;20486;-64
2022/04/19 04:07:06;;;;;;;29.27;20.02;;;;;;;4.62;100.00;101263.50;5061675;28;20383;-64
2022/04/19 04:09:32;;;;;;;29.42;19.92;;;;;;;4.60;100.00;101267.75;5061282;28;20139;-64
2022/04/19 04:12:02;;;;;;;32.85;20.35;;;;;;;4.47;100.00;101264.72;5064412;28;20020;-65
2022/04/19 04:14:31;;;;;;;38.63;21.13;;;;;;;4.36;100.00;101268.69;5060755;28;20025;-65
2022/04/19 04:16:56;;;;;;;39.10;21.83;;;;;;;4.45;100.00;101269.00;5064226;28;20021;-65
2022/04/19 04:19:22;;;;;;;34.70;22.23;;;;;;;4.38;100.00;101268.72;5062282;28;20025;-65
2022/04/19 04:21:47;;;;;;;36.40;22.00;;;;;;;4.43;100.00;101262.81;5062971;28;20116;-64
2022/04/19 04:24:12;;;;;;;31.75;22.27;;;;;;;4.44;100.00;101264.63;5063557;28;20081;-64
2022/04/19 04:26:38;;;;;;;31.40;21.23;;;;;;;4.45;100.00;101271.63;5061770;28;20052;-64
2022/04/19 04:29:03;;;;;;;32.97;23.17;;;;;;;4.41;100.00;101272.34;5064339;28;20111;-64
2022/04/19 04:31:28;;;;;;;32.75;23.02;;;;;;;4.33;100.00;101264.22;5061076;28;20078;-64
2022/04/19 04:33:54;;;;;;;31.30;21.77;;;;;;;4.43;100.00;101275.03;5063734;28;20017;-64
2022/04/19 04:36:19;;;;;;;38.55;24.50;;;;;;;4.36;100.00;101269.56;5062637;28;20025;-64
2022/04/19 04:38:45;;;;;;;32.00;23.52;;;;;;;4.31;100.00;101271.13;5062197;28;20018;-65
2022/04/19 04:41:11;;;;;;;32.25;24.33;;;;;;;4.27;100.00;101270.97;5063633;28;20025;-64
2022/04/19 04:43:38;;;;;;;35.03;23.52;;;;;;;4.27;100.00;101276.22;5061159;28;20024;-64
2022/04/19 04:51:31;;;;;;;32.78;24.67;;;;;;;4.26;100.00;101271.78;5061133;28;20478;-65
2022/04/19 04:53:56;;;;;;;33.50;24.70;;;;;;;4.28;100.00;101275.34;5063737;28;20021;-64
2022/04/19 04:56:23;;;;;;;32.42;23.38;;;;;;;4.29;100.00;101277.13;5061793;28;20025;-65
2022/04/19 04:58:49;;;;;;;36.00;24.17;;;;;;;4.30;100.00;101282.44;5062826;28;20052;-64
2022/04/19 05:01:14;;;;;;;34.85;24.20;;;;;;;4.33;100.00;101279.03;5063231;28;21899;-64
2022/04/19 05:03:40;;;;;;;31.85;24.27;;;;;;;4.35;100.00;101278.28;5061342;28;20498;-64
2022/04/19 05:06:05;;;;;;;34.90;24.80;;;;;;;4.44;100.00;101287.28;5064416;28;20095;-64
2022/04/19 05:08:30;;;;;;;33.97;24.88;;;;;;;4.46;100.00;101281.25;5060793;28;20117;-64
2022/04/19 05:10:56;;;;;;;35.10;25.02;;;;;;;4.48;100.00;101278.69;5063200;28;20107;-64
2022/04/19 05:13:21;;;;;;;36.38;24.85;;;;;;;4.58;100.00;101287.78;5061834;28;20103;-65
2022/04/19 05:15:46;;;;;;;34.25;25.20;;;;;;;4.56;100.00;101282.50;5062513;28;20352;-65
2022/04/19 05:18:14;;;;;;;33.55;25.15;;;;;;;4.61;100.00;101280.91;5063283;28;20489;-65
2022/04/19 05:20:40;;;;;;;32.22;24.25;;;;;;;4.77;100.00;101284.09;5061409;28;20082;-65
2022/04/19 05:23:06;;;;;;;34.35;25.17;;;;;;;4.87;100.00;101287.06;5064049;28;20020;-66
2022/04/19 05:25:31;;;;;;;35.53;25.02;;;;;;;4.94;100.00;101289.94;5060388;28;20033;-65
2022/04/19 05:27:56;;;;;;;33.78;25.40;;;;;;;5.01;100.00;101281.41;5063750;28;20074;-65
2022/04/19 05:30:22;;;;;;;36.60;25.00;;;;;;;5.11;100.00;101286.16;5061617;28;20025;-65
2022/04/19 05:32:47;;;;;;;33.25;24.35;;;;;;;5.22;100.00;101289.13;5061967;28;20116;-66
2022/04/19 05:35:12;;;;;;;35.58;24.48;;;;;;;5.33;100.00;101293.00;5060650;28;20074;-64
2022/04/19 05:37:38;;;;;;;34.08;24.25;;;;;;;5.46;100.00;101296.00;5071061;28;20495;-65
2022/04/19 05:40:03;;;;;;;33.17;23.92;;;;;;;5.61;100.00;101295.59;5071038;28;20111;-64
2022/04/19 05:42:30;;;;;;;35.20;24.73;;;;;;;5.73;100.00;101291.63;5074588;28;20390;-65
2022/04/19 05:44:55;;;;;;;34.40;25.35;;;;;;;5.92;100.00;101285.22;5074890;28;20016;-66
2022/04/19 05:47:20;;;;;;;36.17;25.17;;;;;;;5.99;100.00;101291.56;5074493;28;20044;-64
2022/04/19 05:49:45;;;;;;;33.05;24.08;;;;;;;6.16;100.00;101292.09;5073746;28;20021;-65
2022/04/19 05:52:11;;;;;;;35.97;25.30;;;;;;;6.32;100.00;101292.53;5074382;28;20389;-66
2022/04/19 05:54:36;;;;;;;34.60;24.80;;;;;;;6.47;100.00;101295.59;5074076;28;20108;-64
2022/04/19 05:57:01;;;;;;;33.95;23.85;;;;;;;6.65;100.00;101291.69;5075061;28;20016;-65
2022/04/19 05:59:27;;;;;;;34.67;25.02;;;;;;;6.81;100.00;101288.63;5074515;28;20025;-66
2022/04/19 06:04:54;;;;;;;37.30;25.70;;;;;;;7.08;100.00;101299.00;5074854;28;20036;-65
2022/04/19 06:07:23;;;;;;;34.83;25.35;;;;;;;7.21;100.00;101308.09;5071399;28;20036;-67
2022/04/19 06:09:49;;;;;;;35.53;25.13;;;;;;;7.27;100.00;101310.88;5074478;28;20029;-65
2022/04/19 06:12:15;;;;;;;33.75;23.58;;;;;;;7.32;100.00;101313.59;5074823;28;20379;-68
2022/04/19 06:14:40;;;;;;;35.95;24.40;;;;;;;7.41;100.00;101312.94;5074667;28;20033;-65
2022/04/19 06:17:06;;;;;;;32.35;22.30;;;;;;;7.56;95.29;101315.97;5074609;28;20028;-67
2022/04/19 06:19:31;;;;;;;32.78;22.95;;;;;;;7.65;96.01;101318.81;5073898;28;20020;-66
2022/04/19 06:21:57;;;;;;;33.97;22.73;;;;;;;7.77;96.16;101317.31;5073106;28;20467;-66
2022/04/19 06:24:24;;;;;;;36.13;23.15;;;;;;;7.88;95.12;101320.19;5073997;28;20027;-65
2022/04/19 06:26:49;;;;;;;32.70;22.88;;;;;;;7.93;94.50;101316.81;5066437;28;20509;-66
2022/04/19 06:29:15;;;;;;;31.75;22.50;;;;;;;8.01;94.65;101317.88;5074277;28;20028;-65
2022/04/19 06:31:40;;;;;;;35.75;22.10;;;;;;;8.14;89.24;101319.06;5073737;28;20161;-66
2022/04/19 06:34:07;;;;;;;34.72;21.98;;;;;;;8.29;89.44;101318.50;5074038;28;20033;-65
2022/04/19 06:36:32;;;;;;;31.52;21.40;;;;;;;8.43;87.30;101315.25;5074539;28;20371;-65
2022/04/19 06:38:57;;;;;;;31.98;21.10;;;;;;;8.54;87.85;101314.63;5073285;28;20029;-66
2022/04/19 06:41:23;;;;;;;30.77;20.58;;;;;;;8.68;83.80;101317.56;5073337;28;20060;-65
2022/04/19 06:43:48;;;;;;;30.50;20.65;;;;;;;8.86;82.31;101318.78;5074502;28;20036;-65
2022/04/19 06:46:15;;;;;;;31.45;20.95;;;;;;;9.00;83.79;101314.66;5066251;28;20036;-68
2022/04/19 06:48:40;;;;;;;30.50;19.58;;;;;;;9.18;82.90;101311.44;5061688;28;20145;-66
2022/04/19 06:51:06;;;;;;;29.45;19.38;;;;;;;9.36;78.88;101316.16;5063401;28;20021;-67
2022/04/19 06:53:31;;;;;;;30.63;19.88;;;;;;;9.50;78.62;101318.13;5061611;28;20112;-65
2022/04/19 06:55:57;;;;;;;30.60;19.80;;;;;;;9.69;77.99;101316.69;5061360;28;20376;-65
2022/04/19 06:58:22;;;;;;;29.13;18.60;;;;;;;9.83;76.77;101330.06;5060271;28;20029;-66
2022/04/19 07:00:48;;;;;;;31.20;18.73;;;;;;;9.97;75.02;101320.59;5069458;28;20052;-65
2022/04/19 07:03:14;;;;;;;44.28;19.95;;;;;;;10.13;68.88;101324.34;5073448;28;20059;-65
2022/04/19 07:05:39;;;;;;;30.13;17.17;;;;;;;10.22;68.75;101324.50;5068582;28;20024;-65
2022/04/19 07:08:06;;;;;;;28.80;16.73;;;;;;;10.30;67.40;101321.94;5073131;28;20028;-65
2022/04/19 07:10:33;;;;;;;28.42;16.63;;;;;;;10.42;66.05;101327.41;5072837;28;20463;-65
2022/04/19 07:12:59;;;;;;;28.63;16.83;;;;;;;10.54;66.58;101328.44;5069727;28;20395;-65
2022/04/19 07:15:24;;;;;;;30.17;16.92;;;;;;;10.67;64.55;101322.41;5073517;28;20020;-65
2022/04/19 07:17:50;;;;;;;30.20;16.33;;;;;;;10.78;63.44;101320.78;5073819;28;20113;-65
2022/04/19 07:28:27;;;;;;;28.67;16.08;;;;;;;11.33;60.06;101330.16;5062351;28;20039;-64
2022/04/19 07:30:53;;;;;;;28.50;16.35;;;;;;;11.41;60.48;101333.75;5065005;28;20441;-65
2022/04/19 07:33:18;;;;;;;27.55;15.73;;;;;;;11.57;58.13;101332.13;5063591;28;20028;-65
2022/04/19 07:35:44;;;;;;;28.27;16.20;;;;;;;11.71;60.51;101337.53;5063157;28;20025;-65
2022/04/19 07:38:10;;;;;;;28.90;16.05;;;;;;;11.83;58.61;101342.91;5064321;28;20036;-64
2022/04/19 07:40:36;;;;;;;27.58;15.68;;;;;;;12.00;58.84;101334.25;5062496;28;20423;-64
2022/04/19 07:43:02;;;;;;;27.15;15.82;;;;;;;12.13;57.92;101336.09;5063833;28;20033;-64
2022/04/19 07:45:28;;;;;;;30.85;16.13;;;;;;;12.23;56.99;101337.00;5062076;28;20478;-65
2022/04/19 07:47:54;;;;;;;28.02;15.20;;;;;;;12.33;55.69;101337.94;5064508;28;20040;-65
2022/04/19 07:50:19;;;;;;;27.00;14.35;;;;;;;12.47;56.03;101338.88;5062907;28;20115;-65
2022/04/19 07:52:45;;;;;;;26.77;14.50;;;;;;;12.59;55.82;101334.53;5063358;28;20032;-65
2022/04/19 07:55:10;;;;;;;26.67;13.88;;;;;;;12.68;53.44;101338.09;5064043;28;20052;-65
2022/04/19 07:57:35;;;;;;;28.85;14.20;;;;;;;12.76;53.48;101335.47;5061938;28;20021;-65
2022/04/19 08:00:02;;;;;;;28.35;14.52;;;;;;;12.91;53.84;101332.84;5065099;28;20035;-65
2022/04/19 08:02:28;;;;;;;25.88;13.43;;;;;;;13.13;52.38;101335.53;5061470;28;20460;-65
2022/04/19 08:04:54;;;;;;;25.15;13.00;;;;;;;13.45;52.69;101339.16;5063593;28;20042;-68
2022/04/19 08:07:20;;;;;;;26.33;14.18;;;;;;;13.86;50.63;101346.22;5062619;28;20025;-68
2022/04/19 08:09:45;;;;;;;25.95;13.50;;;;;;;14.37;49.16;101343.44;5063235;28;20025;-68
2022/04/19 08:12:11;;;;;;;25.52;13.02;;;;;;;14.62;49.70;101334.50;5063753;28;20028;-68
2022/04/19 08:14:37;;;;;;;25.30;12.65;;;;;;;14.85;48.28;101330.84;5062020;28;20104;-66
2022/04/19 08:17:02;;;;;;;25.48;12.88;;;;;;;14.92;47.22;101332.56;5065089;28;20155;-68
2022/04/19 08:19:28;;;;;;;24.17;12.88;;;;;;;15.03;47.49;101334.28;5061332;28;20052;-69
2022/04/19 08:21:53;;;;;;;26.30;12.90;;;;;;;15.31;46.03;101330.53;5064246;28;20032;-68
2022/04/19 08:24:19;;;;;;;25.27;12.98;;;;;;;15.55;44.83;101331.22;5062684;28;20039;-68
2022/04/19 08:26:47;;;;;;;24.55;13.35;;;;;;;15.64;45.10;101327.59;5062768;28;20023;-68
2022/04/19 08:29:12;;;;;;;24.17;12.50;;;;;;;15.74;42.79;101328.41;5063512;28;20559;-69
2022/04/19 08:31:38;;;;;;;24.30;11.73;;;;;;;15.94;42.36;101325.59;5061594;28;20064;-69
2022/04/19 08:34:03;;;;;;;24.20;11.95;;;;;;;16.11;42.24;101328.94;5064709;28;20090;-69
2022/04/19 08:36:28;;;;;;;25.23;12.43;;;;;;;16.53;41.83;101321.34;5061307;28;20147;-69
2022/04/19 08:38:53;;;;;;;23.75;11.43;;;;;;;16.95;40.17;101317.25;5063511;28;20048;-66
2022/04/19 08:41:21;;;;;;;23.45;10.98;;;;;;;17.50;39.54;101318.16;5062665;28;20094;-66
2022/04/19 08:43:46;;;;;;;23.27;10.80;;;;;;;17.82;39.10;101322.94;5062760;28;20098;-69
2022/04/19 08:46:13;;;;;;;23.83;11.40;;;;;;;18.31;38.17;101325.66;5063452;28;20455;-69
2022/04/19 08:48:40;;;;;;;23.90;11.10;;;;;;;18.48;36.69;101323.50;5061454;28;20069;-69
2022/04/19 08:51:09;;;;;;;21.95;9.35;;;;;;;18.73;34.30;101318.50;5064213;28;20028;-68
2022/04/19 08:59:05;;;;;;;21.52;8.40;;;;;;;18.99;33.40;101312.56;5061542;28;20090;-66
2022/04/19 09:01:30;;;;;;;20.10;7.40;;;;;;;18.88;32.26;101316.41;5062222;28;20029;-68
2022/04/19 09:03:55;;;;;;;19.33;7.10;;;;;;;18.91;33.01;101321.69;5062467;28;20025;-68
2022/04/19 09:06:21;;;;;;;22.05;7.85;;;;;;;19.03;33.89;101321.41;5061412;28;20491;-67
2022/04/19 09:09:10;;;;;;;41.42;9.82;;;;;;;19.26;33.92;101328.91;5064362;28;20024;-66
2022/04/19 09:11:36;;;;;;;21.05;7.82;;;;;;;19.64;32.42;101315.47;5063571;28;20075;-67
2022/04/19 09:14:07;;;;;;;21.15;8.10;;;;;;;19.72;32.52;101318.84;5062204;28;20024;-67
2022/04/19 09:16:33;;;;;;;23.00;7.88;;;;;;;19.69;31.49;101310.88;5064469;28;20021;-67
2022/04/19 09:18:58;;;;;;;21.95;8.60;;;;;;;19.21;31.61;101303.13;5066908;28;20218;-68
2022/04/19 09:21:38;;;;;;;21.13;8.05;;;;;;;18.61;33.65;101302.69;5065688;28;20116;-67
2022/04/19 09:24:18;;;;;;;20.10;7.72;;;;;;;18.54;33.12;101288.56;5065520;28;20052;-65
2022/04/19 09:26:48;;;;;;;20.33;7.80;;;;;;;18.63;33.85;101299.06;5067642;28;20479;-67
2022/04/19 09:29:22;;;;;;;20.95;7.85;;;;;;;19.21;32.33;101305.81;5075000;28;20021;-66
2022/04/19 09:31:52;;;;;;;19.90;7.28;;;;;;;19.85;31.68;101300.66;5072541;28;20390;-66
2022/04/19 09:34:34;;;;;;;20.42;7.70;;;;;;;20.10;30.89;101289.22;5066718;28;20426;-67
2022/04/19 09:37:08;;;;;;;20.00;7.25;;;;;;;20.15;31.24;101293.56;5069439;28;20074;-65
2022/04/19 09:39:37;;;;;;;19.05;6.70;;;;;;;20.75;30.49;101296.28;5073638;28;20040;-68
2022/04/19 09:42:08;;;;;;;20.17;7.10;;;;;;;21.24;29.53;101300.06;5075076;28;20341;-65
2022/04/19 09:44:38;;;;;;;20.02;7.03;;;;;;;21.32;28.92;101290.88;5074907;28;20124;-65
2022/04/19 09:47:09;;;;;;;19.92;7.03;;;;;;;21.50;28.20;101297.47;5073847;28;20056;-67
2022/04/19 09:49:51;;;;;;;19.33;6.68;;;;;;;21.75;28.49;101292.13;5073478;28;20025;-65
2022/04/19 09:52:22;;;;;;;19.87;7.00;;;;;;;22.18;29.11;101293.28;5072036;28;20025;-66
2022/04/19 09:55:00;;;;;;;19.50;6.65;;;;;;;22.46;26.74;101293.13;5071983;28;20336;-67
2022/04/19 09:57:27;;;;;;;18.70;6.35;;;;;;;23.19;25.75;101294.81;5073474;28;20105;-66
2022/04/19 09:59:54;;;;;;;19.75;6.50;;;;;;;23.04;25.52;101291.75;5074735;28;20082;-66
2022/04/19 10:10:36;;;;;;;19.23;6.15;;;;;;;23.78;25.71;101291.38;5072748;28;20090;-68
2022/04/19 10:13:03;;;;;;;18.83;6.22;;;;;;;24.69;24.31;101281.00;5074497;28;20029;-68
2022/04/19 10:15:31;;;;;;;19.33;6.60;;;;;;;25.20;23.81;101284.78;5065684;28;20035;-69
2022/04/19 10:17:56;;;;;;;19.02;6.70;;;;;;;25.20;23.33;101283.91;5064256;28;20025;-67
2022/04/19 10:20:33;;;;;;;19.77;6.72;;;;;;;24.99;24.62;101284.03;5066840;28;20024;-69
2022/04/19 10:23:10;;;;;;;19.73;6.93;;;;;;;25.05;25.05;101282.84;5064876;28;20045;-67
2022/04/19 10:25:46;;;;;;;19.02;6.55;;;;;;;25.51;24.48;101285.09;5064993;28;20021;-68
2022/04/19 10:28:13;;;;;;;19.48;7.00;;;;;;;25.62;22.46;101277.28;5065023;28;20033;-69
2022/04/19 10:30:46;;;;;;;19.30;6.70;;;;;;;26.09;23.62;101287.44;5064395;28;20024;-67
2022/04/19 10:33:39;;;;;;;19.50;6.78;;;;;;;26.22;22.62;101287.66;5066382;28;20375;-66
2022/04/19 10:36:18;;;;;;;20.58;6.13;;;;;;;26.59;22.08;101290.16;5065193;28;20028;-66
2022/04/19 10:38:45;;;;;;;18.98;6.88;;;;;;;26.93;21.57;101288.28;5061321;28;20394;-67
2022/04/19 10:41:11;;;;;;;19.77;6.47;;;;;;;27.31;20.18;101280.63;5062571;28;20425;-67
2022/04/19 10:43:36;;;;;;;19.45;6.88;;;;;;;27.57;21.23;101285.50;5063089;28;20020;-66
2022/04/19 10:46:21;;;;;;;24.88;7.22;;;;;;;27.58;21.31;101279.06;5068792;28;20387;-65
2022/04/19 10:49:24;;;;;;;19.85;7.45;;;;;;;26.95;22.13;101284.53;5071127;28;20044;-65
2022/04/19 10:51:59;;;;;;;21.38;7.25;;;;;;;27.63;20.75;101279.69;5072239;28;20028;-65
2022/04/19 10:55:02;;;;;;;20.38;7.10;;;;;;;29.01;20.48;101270.06;5073183;28;20032;-65
2022/04/19 11:00:29;;;;;;;19.67;6.82;;;;;;;29.63;19.43;101267.75;5073583;28;20083;-66
2022/04/19 11:03:06;;;;;;;19.40;7.07;;;;;;;30.24;19.27;101263.41;5073917;28;20036;-65
2022/04/19 11:05:43;;;;;;;19.02;7.20;;;;;;;30.06;18.69;101253.88;5073102;28;20032;-65
2022/04/19 11:08:26;;;;;;;17.95;6.32;;;;;;;30.09;18.85;101256.38;5073072;28;20048;-65
2022/04/19 11:10:54;;;;;;;18.70;6.18;;;;;;;29.64;18.14;101258.63;5070354;28;20029;-66
2022/04/19 11:13:21;;;;;;;19.67;6.30;;;;;;;30.11;18.34;101251.66;5066655;28;20111;-67
2022/04/19 11:16:13;;;;;;;18.20;6.18;;;;;;;30.38;19.10;101254.25;5073335;28;20514;-67
2022/04/19 11:18:41;;;;;;;20.23;6.10;;;;;;;29.89;17.35;101242.28;5071448;28;20028;-66
2022/04/19 11:21:11;;;;;;;19.98;6.78;;;;;;;29.20;19.38;101250.63;5072683;28;20028;-66
2022/04/19 11:23:45;;;;;;;20.33;6.65;;;;;;;28.98;19.58;101247.63;5073195;28;20039;-66
2022/04/19 11:26:35;;;;;;;19.75;6.40;;;;;;;30.19;19.15;101251.13;5071675;28;20043;-68
2022/04/19 11:29:09;;;;;;;19.40;6.55;;;;;;;30.94;17.75;101250.16;5072243;28;20119;-66
2022/04/19 11:31:36;;;;;;;19.63;6.47;;;;;;;31.42;16.99;101235.63;5070761;28;20024;-66
2022/04/19 11:34:16;;;;;;;18.95;6.30;;;;;;;31.70;17.32;101245.28;5072342;28;20108;-65
2022/04/19 11:36:43;;;;;;;19.40;5.93;;;;;;;32.15;16.16;101230.81;5073050;28;20395;-66
2022/04/19 11:46:43;;;;;;;18.70;5.85;;;;;;;32.11;16.18;101232.03;5072902;28;20031;-65
2022/04/19 11:47:46;;;;;;;19.48;6.22;;;;;;;30.55;18.06;101233.97;5069516;28;20051;-65
2022/04/19 11:50:31;;;;;;;19.15;6.25;;;;;;;30.72;18.58;101237.28;5070662;28;20029;-66
2022/04/19 11:52:58;;;;;;;20.30;6.40;;;;;;;30.52;18.41;101234.16;5068544;28;20019;-65
2022/04/19 11:55:25;;;;;;;18.08;5.45;;;;;;;31.09;17.40;101243.59;5065221;28;20064;-65
2022/04/19 11:58:03;;;;;;;19.40;6.38;;;;;;;31.84;17.34;101252.38;5065117;28;20021;-65
2022/04/19 12:00:28;;;;;;;18.75;6.10;;;;;;;32.28;15.97;101239.75;5065595;28;20054;-65